createdAt,value
2019-04-07T00:00:02.725Z,56.07
2019-04-07T00:01:02.722Z,56.07
2019-04-07T00:02:02.816Z,55.87
2019-04-07T00:03:02.688Z,55.97
2019-04-07T00:04:02.678Z,55.76
2019-04-07T00:05:10.969Z,56.10
2019-04-07T00:06:04.156Z,55.99
2019-04-07T00:07:02.640Z,55.79
2019-04-07T00:08:02.630Z,55.99
2019-04-07T00:09:02.750Z,56.10
2019-04-07T00:10:02.857Z,56.50
2019-04-07T00:11:02.982Z,56.60
2019-04-07T00:12:02.800Z,56.71
2019-04-07T00:13:02.867Z,56.50
2019-04-07T00:14:02.564Z,56.50
2019-04-07T00:15:02.561Z,56.40
2019-04-07T00:16:02.553Z,56.63
2019-04-07T00:17:02.521Z,56.20
2019-04-07T00:18:02.521Z,56.30
2019-04-07T00:19:02.508Z,56.43
2019-04-07T00:20:02.509Z,56.50
2019-04-07T00:21:02.500Z,56.50
2019-04-07T00:22:02.503Z,56.73
2019-04-07T00:23:02.461Z,56.53
2019-04-07T00:24:02.508Z,56.23
2019-04-07T00:25:02.607Z,56.32
2019-04-07T00:26:02.534Z,56.84
2019-04-07T00:27:02.587Z,57.14
2019-04-07T00:28:02.584Z,57.24
2019-04-07T00:29:02.403Z,57.04
2019-04-07T00:30:02.375Z,57.75
2019-04-07T00:31:02.538Z,57.55
2019-04-07T00:32:02.556Z,57.27
2019-04-07T00:33:02.340Z,57.48
2019-04-07T00:34:02.804Z,57.24
2019-04-07T00:35:02.318Z,57.17
2019-04-07T00:36:02.714Z,57.98
2019-04-07T00:37:03.056Z,57.48
2019-04-07T00:38:02.980Z,57.48
2019-04-07T00:39:02.709Z,57.48
2019-04-07T00:40:02.320Z,57.88
2019-04-07T00:41:02.248Z,57.57
2019-04-07T00:42:02.880Z,57.98
2019-04-07T00:43:02.230Z,57.78
2019-04-07T00:44:02.454Z,57.98
2019-04-07T00:45:02.240Z,58.09
2019-04-07T00:46:02.407Z,57.98
2019-04-07T00:47:02.215Z,58.01
2019-04-07T00:48:02.193Z,57.98
2019-04-07T00:49:02.907Z,57.98
2019-04-07T00:50:02.910Z,58.01
2019-04-07T00:51:02.136Z,58.01
2019-04-07T00:52:02.823Z,58.01
2019-04-07T00:53:02.129Z,58.22
2019-04-07T00:54:02.113Z,58.01
2019-04-07T00:55:02.314Z,58.01
2019-04-07T00:56:02.084Z,58.86
2019-04-07T00:57:02.084Z,58.01
2019-04-07T00:58:02.587Z,58.22
2019-04-07T00:59:02.647Z,58.83
2019-04-07T01:00:02.847Z,58.22
2019-04-07T01:01:02.033Z,58.62
2019-04-07T01:02:02.566Z,58.73
2019-04-07T01:03:02.017Z,58.22
2019-04-07T01:04:01.994Z,58.52
2019-04-07T01:05:02.518Z,58.42
2019-04-07T01:06:02.216Z,59.14
2019-04-07T01:07:02.701Z,58.52
2019-04-07T01:08:01.948Z,58.55
2019-04-07T01:09:01.937Z,58.45
2019-04-07T01:10:02.174Z,58.52
2019-04-07T01:11:02.389Z,57.93
2019-04-07T01:12:01.918Z,58.14
2019-04-07T01:13:01.890Z,58.14
2019-04-07T01:14:01.881Z,58.25
2019-04-07T01:15:02.297Z,58.45
2019-04-07T01:16:01.878Z,58.25
2019-04-07T01:17:02.415Z,58.34
2019-04-07T01:18:02.132Z,58.34
2019-04-07T01:19:02.427Z,58.14
2019-04-07T01:20:01.816Z,58.14
2019-04-07T01:21:02.232Z,58.86
2019-04-07T01:22:02.373Z,59.37
2019-04-07T01:23:01.783Z,58.75
2019-04-07T01:24:02.327Z,58.34
2019-04-07T01:25:01.758Z,59.27
2019-04-07T01:26:01.951Z,59.57
2019-04-07T01:27:01.760Z,59.16
2019-04-07T01:28:01.994Z,59.80
2019-04-07T01:29:02.982Z,58.98
2019-04-07T01:30:02.055Z,58.86
2019-04-07T01:31:02.329Z,59.19
2019-04-07T01:32:01.696Z,59.06
2019-04-07T01:33:02.183Z,59.27
2019-04-07T01:34:02.161Z,59.19
2019-04-07T01:35:02.391Z,59.80
2019-04-07T01:36:02.046Z,58.78
2019-04-07T01:37:01.617Z,59.39
2019-04-07T01:38:01.634Z,59.39
2019-04-07T01:39:01.597Z,58.68
2019-04-07T01:40:01.611Z,58.70
2019-04-07T01:41:02.002Z,59.30
2019-04-07T01:42:01.645Z,59.60
2019-04-07T01:43:01.568Z,59.30
2019-04-07T01:44:01.547Z,58.78
2019-04-07T01:45:01.568Z,59.50
2019-04-07T01:46:02.181Z,59.73
2019-04-07T01:47:01.505Z,59.19
2019-04-07T01:48:01.508Z,59.39
2019-04-07T01:49:02.149Z,59.53
2019-04-07T01:50:02.169Z,60.03
2019-04-07T01:51:01.512Z,59.73
2019-04-07T01:52:01.926Z,60.14
2019-04-07T01:53:01.459Z,60.44
2019-04-07T01:54:02.071Z,59.63
2019-04-07T01:55:01.436Z,60.03
2019-04-07T01:56:01.806Z,60.35
2019-04-07T01:57:01.444Z,60.35
2019-04-07T01:58:02.044Z,59.83
2019-04-07T01:59:01.561Z,60.24
2019-04-07T02:00:01.941Z,60.27
2019-04-07T02:01:02.019Z,59.73
2019-04-07T02:02:02.017Z,60.55
2019-04-07T02:03:01.344Z,60.27
2019-04-07T02:04:01.744Z,60.37
2019-04-07T02:05:01.326Z,60.27
2019-04-07T02:06:03.806Z,60.14
2019-04-07T02:07:01.839Z,60.37
2019-04-07T02:08:01.354Z,60.58
2019-04-07T02:09:01.812Z,60.47
2019-04-07T02:10:01.241Z,60.58
2019-04-07T02:11:01.364Z,60.88
2019-04-07T02:12:01.894Z,60.78
2019-04-07T02:13:02.057Z,60.47
2019-04-07T02:14:01.205Z,60.27
2019-04-07T02:15:01.218Z,60.27
2019-04-07T02:16:01.176Z,60.88
2019-04-07T02:17:01.869Z,60.78
2019-04-07T02:18:01.183Z,60.88
2019-04-07T02:19:01.963Z,61.50
2019-04-07T02:20:01.352Z,61.50
2019-04-07T02:21:01.119Z,61.29
2019-04-07T02:22:01.106Z,61.09
2019-04-07T02:23:01.114Z,60.99
2019-04-07T02:24:01.088Z,60.78
2019-04-07T02:25:01.791Z,60.78
2019-04-07T02:26:01.078Z,61.19
2019-04-07T02:27:01.054Z,61.60
2019-04-07T02:28:01.150Z,61.50
2019-04-07T02:29:01.602Z,61.40
2019-04-07T02:30:01.022Z,62.01
2019-04-07T02:31:01.048Z,61.60
2019-04-07T02:32:01.451Z,61.83
2019-04-07T02:33:02.148Z,61.63
2019-04-07T02:34:00.999Z,61.11
2019-04-07T02:35:01.523Z,61.73
2019-04-07T02:36:15.804Z,62.35
2019-04-07T02:37:03.014Z,61.93
2019-04-07T02:38:02.047Z,61.73
2019-04-07T02:39:00.953Z,61.83
2019-04-07T02:40:00.923Z,61.83
2019-04-07T02:41:01.768Z,61.66
2019-04-07T02:42:00.884Z,61.83
2019-04-07T02:43:01.840Z,61.63
2019-04-07T02:44:01.596Z,61.63
2019-04-07T02:45:01.384Z,62.24
2019-04-07T02:46:00.837Z,61.86
2019-04-07T02:47:00.949Z,61.73
2019-04-07T02:48:01.147Z,61.73
2019-04-07T02:49:01.778Z,61.76
2019-04-07T02:50:01.677Z,61.86
2019-04-07T02:51:01.308Z,61.86
2019-04-07T02:52:00.771Z,62.17
2019-04-07T02:53:01.545Z,61.96
2019-04-07T02:54:00.854Z,61.86
2019-04-07T02:55:01.094Z,61.76
2019-04-07T02:56:01.874Z,61.55
2019-04-07T02:57:00.717Z,61.55
2019-04-07T02:58:01.532Z,62.48
2019-04-07T02:59:01.327Z,62.27
2019-04-07T03:00:01.131Z,62.27
2019-04-07T03:01:01.771Z,62.17
2019-04-07T03:02:00.743Z,62.17
2019-04-07T03:03:01.631Z,62.30
2019-04-07T03:04:00.657Z,62.37
2019-04-07T03:05:00.629Z,61.86
2019-04-07T03:06:01.832Z,62.37
2019-04-07T03:07:00.671Z,62.10
2019-04-07T03:08:01.581Z,62.27
2019-04-07T03:09:00.597Z,62.58
2019-04-07T03:10:00.575Z,62.71
2019-04-07T03:11:00.558Z,62.81
2019-04-07T03:12:00.548Z,62.71
2019-04-07T03:13:01.003Z,63.32
2019-04-07T03:14:00.724Z,62.71
2019-04-07T03:15:00.627Z,62.81
2019-04-07T03:16:00.814Z,62.71
2019-04-07T03:17:00.499Z,63.12
2019-04-07T03:18:00.604Z,63.32
2019-04-07T03:19:00.596Z,63.22
2019-04-07T03:20:00.824Z,62.81
2019-04-07T03:21:01.183Z,62.71
2019-04-07T03:22:00.969Z,62.81
2019-04-07T03:23:00.456Z,62.92
2019-04-07T03:24:00.443Z,62.81
2019-04-07T03:25:00.399Z,62.71
2019-04-07T03:26:00.857Z,62.95
2019-04-07T03:27:00.837Z,62.81
2019-04-07T03:28:00.525Z,62.95
2019-04-07T03:29:01.222Z,63.94
2019-04-07T03:30:00.906Z,63.35
2019-04-07T03:31:02.184Z,63.56
2019-04-07T03:32:00.580Z,64.07
2019-04-07T03:33:02.559Z,63.87
2019-04-07T03:34:03.846Z,63.56
2019-04-07T03:35:00.313Z,63.46
2019-04-07T03:36:02.869Z,63.66
2019-04-07T03:37:25.824Z,63.66
2019-04-07T03:38:02.019Z,63.76
2019-04-07T03:39:00.894Z,63.87
2019-04-07T03:40:00.914Z,63.87
2019-04-07T03:41:00.260Z,63.87
2019-04-07T03:42:01.061Z,63.76
2019-04-07T03:43:00.196Z,63.66
2019-04-07T03:44:01.202Z,64.48
2019-04-07T03:45:00.763Z,63.97
2019-04-07T03:46:00.341Z,64.17
2019-04-07T03:47:01.372Z,63.87
2019-04-07T03:48:00.666Z,64.48
2019-04-07T03:49:00.127Z,64.38
2019-04-07T03:50:00.143Z,64.20
2019-04-07T03:51:01.414Z,64.38
2019-04-07T03:52:00.101Z,64.07
2019-04-07T03:53:00.083Z,64.10
2019-04-07T03:54:00.652Z,64.17
2019-04-07T03:55:01.210Z,64.61
2019-04-07T03:56:00.058Z,64.20
2019-04-07T03:57:00.449Z,64.51
2019-04-07T03:58:00.199Z,64.17
2019-04-07T03:59:00.011Z,64.20
2019-04-07T04:00:00.615Z,64.31
2019-04-07T04:01:00.605Z,64.41
2019-04-07T04:02:00.190Z,64.31
2019-04-07T04:03:00.385Z,64.10
2019-04-07T04:04:00.694Z,64.51
2019-04-07T04:05:00.872Z,64.20
2019-04-07T04:05:59.935Z,64.10
2019-04-07T04:07:00.219Z,64.82
2019-04-07T04:07:59.916Z,64.41
2019-04-07T04:09:00.520Z,64.31
2019-04-07T04:09:59.913Z,64.51
2019-04-07T04:11:00.130Z,64.82
2019-04-07T04:12:00.194Z,64.82
2019-04-07T04:13:00.863Z,64.72
2019-04-07T04:13:59.850Z,64.72
2019-04-07T04:15:00.515Z,64.72
2019-04-07T04:16:00.784Z,64.82
2019-04-07T04:17:00.083Z,64.61
2019-04-07T04:17:59.803Z,64.82
2019-04-07T04:19:00.144Z,65.12
2019-04-07T04:19:59.969Z,65.12
2019-04-07T04:20:59.791Z,65.16
2019-04-07T04:22:00.640Z,65.12
2019-04-07T04:22:59.859Z,64.95
2019-04-07T04:24:00.565Z,65.64
2019-04-07T04:25:00.510Z,65.16
2019-04-07T04:25:59.728Z,65.67
2019-04-07T04:26:59.708Z,65.33
2019-04-07T04:27:59.697Z,65.88
2019-04-07T04:28:59.907Z,65.67
2019-04-07T04:30:00.816Z,65.36
2019-04-07T04:30:59.903Z,65.26
2019-04-07T04:31:59.767Z,65.36
2019-04-07T04:32:59.811Z,65.47
2019-04-07T04:33:59.625Z,65.36
2019-04-07T04:34:59.617Z,65.36
2019-04-07T04:36:00.522Z,65.47
2019-04-07T04:36:59.969Z,65.77
2019-04-07T04:37:59.823Z,65.88
2019-04-07T04:39:00.569Z,65.33
2019-04-07T04:39:59.782Z,64.95
2019-04-07T04:41:00.144Z,65.88
2019-04-07T04:41:59.921Z,65.67
2019-04-07T04:42:59.521Z,65.16
2019-04-07T04:44:00.404Z,66.08
2019-04-07T04:44:59.501Z,65.36
2019-04-07T04:45:59.982Z,65.77
2019-04-07T04:47:01.232Z,66.08
2019-04-07T04:48:00.189Z,65.67
2019-04-07T04:48:59.459Z,65.47
2019-04-07T04:49:59.844Z,65.57
2019-04-07T04:50:59.902Z,65.67
2019-04-07T04:52:00.329Z,65.67
2019-04-07T04:52:59.881Z,65.57
2019-04-07T04:53:59.400Z,65.16
2019-04-07T04:54:59.390Z,65.47
2019-04-07T04:55:59.374Z,65.88
2019-04-07T04:57:00.149Z,65.16
2019-04-07T04:57:59.357Z,65.16
2019-04-07T04:58:59.801Z,65.26
2019-04-07T04:59:59.334Z,65.26
2019-04-07T05:00:59.330Z,65.67
2019-04-07T05:01:59.868Z,65.57
2019-04-07T05:02:59.411Z,65.47
2019-04-07T05:03:59.435Z,65.26
2019-04-07T05:04:59.386Z,65.33
2019-04-07T05:05:59.269Z,64.92
2019-04-07T05:06:59.390Z,65.12
2019-04-07T05:08:03.613Z,65.36
2019-04-07T05:09:01.084Z,64.95
2019-04-07T05:10:00.009Z,64.92
2019-04-07T05:10:59.829Z,65.03
2019-04-07T05:11:59.217Z,64.95
2019-04-07T05:12:59.184Z,65.12
2019-04-07T05:13:59.326Z,64.85
2019-04-07T05:14:59.164Z,65.23
2019-04-07T05:15:59.444Z,65.12
2019-04-07T05:16:59.511Z,64.92
2019-04-07T05:17:59.133Z,65.12
2019-04-07T05:18:59.644Z,64.82
2019-04-07T05:19:59.102Z,64.92
2019-04-07T05:20:59.757Z,64.72
2019-04-07T05:21:59.842Z,64.92
2019-04-07T05:22:59.791Z,65.12
2019-04-07T05:23:59.214Z,64.72
2019-04-07T05:24:59.043Z,65.03
2019-04-07T05:25:59.239Z,65.23
2019-04-07T05:26:59.042Z,64.92
2019-04-07T05:27:59.014Z,65.12
2019-04-07T05:28:59.393Z,65.03
2019-04-07T05:29:58.985Z,64.92
2019-04-07T05:30:59.115Z,64.82
2019-04-07T05:31:59.169Z,64.92
2019-04-07T05:32:59.090Z,64.72
2019-04-07T05:34:00.295Z,64.61
2019-04-07T05:34:58.935Z,64.72
2019-04-07T05:35:59.305Z,64.51
2019-04-07T05:36:58.931Z,64.72
2019-04-07T05:38:02.680Z,64.79
2019-04-07T05:38:59.950Z,64.61
2019-04-07T05:39:59.156Z,64.41
2019-04-07T05:40:58.870Z,64.38
2019-04-07T05:41:59.218Z,64.20
2019-04-07T05:42:58.842Z,64.17
2019-04-07T05:43:58.836Z,64.07
2019-04-07T05:44:58.819Z,63.97
2019-04-07T05:45:59.291Z,64.38
2019-04-07T05:46:58.827Z,64.04
2019-04-07T05:47:58.874Z,63.73
2019-04-07T05:48:58.893Z,64.17
2019-04-07T05:49:59.636Z,63.87
2019-04-07T05:51:00.536Z,64.28
2019-04-07T05:52:03.859Z,63.64
2019-04-07T05:52:59.752Z,63.94
2019-04-07T05:53:59.313Z,63.94
2019-04-07T05:54:58.797Z,63.73
2019-04-07T05:55:58.697Z,63.84
2019-04-07T05:57:01.183Z,63.64
2019-04-07T05:57:58.745Z,63.64
2019-04-07T05:58:58.659Z,63.43
2019-04-07T05:59:59.251Z,63.32
2019-04-07T06:00:58.725Z,63.12
2019-04-07T06:02:01.545Z,62.78
2019-04-07T06:03:01.265Z,62.88
2019-04-07T06:03:59.982Z,63.20
2019-04-07T06:05:00.288Z,62.48
2019-04-07T06:05:59.286Z,62.35
2019-04-07T06:06:59.113Z,62.35
2019-04-07T06:08:02.693Z,62.24
2019-04-07T06:08:59.810Z,62.65
2019-04-07T06:09:58.807Z,62.14
2019-04-07T06:11:02.045Z,62.24
2019-04-07T06:11:58.725Z,62.14
2019-04-07T06:12:58.531Z,61.63
2019-04-07T06:13:58.495Z,62.11
2019-04-07T06:14:58.593Z,61.91
2019-04-07T06:15:58.756Z,61.80
2019-04-07T06:16:58.851Z,61.60
2019-04-07T06:18:00.538Z,61.70
2019-04-07T06:18:58.887Z,61.50
2019-04-07T06:19:58.946Z,61.29
2019-04-07T06:20:58.568Z,61.40
2019-04-07T06:21:59.118Z,61.19
2019-04-07T06:22:58.491Z,61.06
2019-04-07T06:23:59.854Z,60.88
2019-04-07T06:25:00.746Z,60.55
2019-04-07T06:25:59.450Z,60.35
2019-04-07T06:26:58.726Z,60.24
2019-04-07T06:27:58.875Z,59.83
2019-04-07T06:28:58.901Z,60.24
2019-04-07T06:30:00.077Z,60.52
2019-04-07T06:31:00.172Z,60.31
2019-04-07T06:32:02.442Z,60.31
2019-04-07T06:32:59.300Z,59.80
2019-04-07T06:33:58.931Z,60.42
2019-04-07T06:34:58.454Z,59.88
2019-04-07T06:35:58.258Z,59.27
2019-04-07T06:36:58.281Z,59.06
2019-04-07T06:38:04.066Z,59.37
2019-04-07T06:38:59.384Z,58.34
2019-04-07T06:39:59.203Z,58.32
2019-04-07T06:41:00.906Z,58.11
2019-04-07T06:42:00.423Z,58.73
2019-04-07T06:42:58.164Z,58.52
2019-04-07T06:44:08.868Z,57.98
2019-04-07T06:45:00.401Z,58.09
2019-04-07T06:45:58.478Z,57.98
2019-04-07T06:47:01.294Z,58.09
2019-04-07T06:48:01.143Z,58.16
2019-04-07T06:48:58.115Z,57.86
2019-04-07T06:49:58.555Z,58.06
2019-04-07T06:50:59.737Z,57.86
2019-04-07T06:52:00.691Z,57.83
2019-04-07T06:52:58.830Z,57.32
2019-04-07T06:53:58.060Z,56.71
2019-04-07T06:54:58.040Z,56.40
2019-04-07T06:56:01.359Z,56.48
2019-04-07T06:56:58.012Z,56.37
2019-04-07T06:57:58.235Z,56.58
2019-04-07T06:58:58.140Z,56.68
2019-04-07T06:59:57.984Z,56.48
2019-04-07T07:01:00.274Z,56.15
2019-04-07T07:01:59.392Z,56.04
2019-04-07T07:02:58.914Z,55.94
2019-04-07T07:03:58.548Z,55.63
2019-04-07T07:04:58.281Z,55.00
2019-04-07T07:06:00.205Z,54.28
2019-04-07T07:06:57.894Z,54.66
2019-04-07T07:07:57.887Z,54.79
2019-04-07T07:08:58.360Z,54.87
2019-04-07T07:09:59.888Z,54.36
2019-04-07T07:10:58.467Z,54.97
2019-04-07T07:11:58.804Z,53.93
2019-04-07T07:13:01.656Z,53.42
2019-04-07T07:13:57.831Z,53.93
2019-04-07T07:14:58.323Z,54.31
2019-04-07T07:15:58.524Z,53.50
2019-04-07T07:16:58.700Z,54.11
2019-04-07T07:17:59.256Z,53.27
2019-04-07T07:18:58.753Z,53.47
2019-04-07T07:20:01.312Z,53.17
2019-04-07T07:21:02.547Z,52.73
2019-04-07T07:21:57.973Z,52.96
2019-04-07T07:23:00.340Z,52.94
2019-04-07T07:23:57.961Z,52.43
2019-04-07T07:24:59.854Z,52.03
2019-04-07T07:26:00.888Z,52.43
2019-04-07T07:26:58.663Z,52.33
2019-04-07T07:27:57.808Z,51.90
2019-04-07T07:28:58.303Z,52.30
2019-04-07T07:29:57.845Z,52.10
2019-04-07T07:30:57.631Z,51.39
2019-04-07T07:32:02.488Z,52.08
2019-04-07T07:32:58.612Z,51.06
2019-04-07T07:33:58.260Z,51.77
2019-04-07T07:34:57.682Z,51.87
2019-04-07T07:35:58.294Z,51.67
2019-04-07T07:36:58.739Z,51.16
2019-04-07T07:37:59.504Z,51.26
2019-04-07T07:39:01.785Z,51.26
2019-04-07T07:39:58.561Z,50.93
2019-04-07T07:41:00.941Z,50.93
2019-04-07T07:41:58.339Z,50.93
2019-04-07T07:42:59.111Z,51.04
2019-04-07T07:44:00.660Z,51.04
2019-04-07T07:44:58.636Z,51.34
2019-04-07T07:45:57.662Z,51.42
2019-04-07T07:46:58.167Z,51.32
2019-04-07T07:47:57.712Z,50.59
2019-04-07T07:49:00.784Z,50.38
2019-04-07T07:49:57.589Z,50.40
2019-04-07T07:50:57.425Z,50.38
2019-04-07T07:51:58.094Z,50.18
2019-04-07T07:52:58.129Z,50.56
2019-04-07T07:54:00.740Z,49.95
2019-04-07T07:54:59.799Z,50.05
2019-04-07T07:55:57.633Z,49.75
2019-04-07T07:56:58.001Z,50.34
2019-04-07T07:57:59.186Z,50.03
2019-04-07T07:58:59.897Z,49.93
2019-04-07T07:59:57.415Z,49.32
2019-04-07T08:00:59.606Z,49.22
2019-04-07T08:01:57.840Z,49.40
2019-04-07T08:02:57.263Z,49.10
2019-04-07T08:03:57.253Z,49.30
2019-04-07T08:04:59.113Z,49.30
2019-04-07T08:05:57.868Z,48.67
2019-04-07T08:06:57.851Z,48.16
2019-04-07T08:07:57.379Z,48.26
2019-04-07T08:09:07.615Z,47.94
2019-04-07T08:09:58.211Z,48.44
2019-04-07T08:11:00.681Z,47.83
2019-04-07T08:11:57.774Z,48.54
2019-04-07T08:12:57.422Z,48.95
2019-04-07T08:13:57.745Z,48.42
2019-04-07T08:14:58.665Z,48.22
2019-04-07T08:15:58.555Z,48.22
2019-04-07T08:17:00.195Z,47.20
2019-04-07T08:17:58.556Z,47.41
2019-04-07T08:18:59.199Z,47.49
2019-04-07T08:19:57.751Z,47.08
2019-04-07T08:20:57.779Z,47.28
2019-04-07T08:21:57.323Z,47.39
2019-04-07T08:22:57.079Z,47.08
2019-04-07T08:23:57.837Z,46.88
2019-04-07T08:24:57.033Z,46.78
2019-04-07T08:25:57.893Z,47.08
2019-04-07T08:26:58.851Z,46.48
2019-04-07T08:27:57.444Z,46.36
2019-04-07T08:28:56.977Z,46.07
2019-04-07T08:29:57.209Z,46.05
2019-04-07T08:30:57.526Z,45.65
2019-04-07T08:31:57.662Z,45.95
2019-04-07T08:32:59.290Z,44.94
2019-04-07T08:33:59.649Z,45.32
2019-04-07T08:34:57.005Z,44.62
2019-04-07T08:35:57.749Z,45.22
2019-04-07T08:36:57.449Z,45.02
2019-04-07T08:37:57.595Z,44.42
2019-04-07T08:38:57.191Z,44.62
2019-04-07T08:39:57.957Z,44.71
2019-04-07T08:40:57.607Z,44.62
2019-04-07T08:41:57.227Z,44.42
2019-04-07T08:42:57.288Z,45.22
2019-04-07T08:43:57.874Z,44.62
2019-04-07T08:44:58.709Z,44.01
2019-04-07T08:45:56.768Z,44.70
2019-04-07T08:46:57.965Z,44.82
2019-04-07T08:47:56.750Z,44.09
2019-04-07T08:48:56.748Z,44.49
2019-04-07T08:49:57.762Z,43.99
2019-04-07T08:50:58.705Z,44.39
2019-04-07T08:51:57.170Z,44.79
2019-04-07T08:52:56.689Z,44.29
2019-04-07T08:53:57.444Z,44.57
2019-04-07T08:54:56.694Z,44.37
2019-04-07T08:55:57.006Z,44.47
2019-04-07T08:56:58.215Z,44.57
2019-04-07T08:58:00.100Z,43.57
2019-04-07T08:58:57.957Z,44.07
2019-04-07T08:59:56.814Z,44.27
2019-04-07T09:00:57.294Z,44.27
2019-04-07T09:01:56.994Z,44.17
2019-04-07T09:03:03.095Z,43.87
2019-04-07T09:03:57.570Z,43.16
2019-04-07T09:04:56.943Z,43.34
2019-04-07T09:05:57.561Z,43.97
2019-04-07T09:06:59.361Z,43.85
2019-04-07T09:07:57.372Z,43.95
2019-04-07T09:08:56.519Z,43.24
2019-04-07T09:09:56.715Z,43.14
2019-04-07T09:10:56.685Z,43.34
2019-04-07T09:11:57.525Z,43.22
2019-04-07T09:12:59.534Z,43.24
2019-04-07T09:13:58.195Z,42.32
2019-04-07T09:14:57.021Z,42.21
2019-04-07T09:15:56.763Z,41.93
2019-04-07T09:16:58.134Z,42.33
2019-04-07T09:17:56.685Z,42.11
2019-04-07T09:19:01.831Z,41.93
2019-04-07T09:19:58.209Z,42.24
2019-04-07T09:20:57.187Z,42.32
2019-04-07T09:21:57.016Z,43.12
2019-04-07T09:22:57.920Z,43.42
2019-04-07T09:23:57.544Z,43.02
2019-04-07T09:24:56.712Z,42.19
2019-04-07T09:25:56.326Z,42.11
2019-04-07T09:26:56.326Z,41.89
2019-04-07T09:27:57.210Z,41.79
2019-04-07T09:28:56.300Z,41.59
2019-04-07T09:29:58.263Z,41.39
2019-04-07T09:30:56.389Z,40.99
2019-04-07T09:31:56.513Z,41.19
2019-04-07T09:32:56.801Z,41.09
2019-04-07T09:33:56.261Z,41.37
2019-04-07T09:34:57.064Z,40.69
2019-04-07T09:35:58.888Z,41.37
2019-04-07T09:36:56.197Z,41.87
2019-04-07T09:37:56.241Z,41.37
2019-04-07T09:38:59.940Z,41.37
2019-04-07T09:40:01.026Z,41.57
2019-04-07T09:40:57.256Z,41.27
2019-04-07T09:41:56.134Z,40.66
2019-04-07T09:42:58.718Z,39.56
2019-04-07T09:43:56.133Z,41.57
2019-04-07T09:44:56.343Z,40.36
2019-04-07T09:45:56.102Z,40.36
2019-04-07T09:46:56.082Z,39.74
2019-04-07T09:47:56.453Z,40.06
2019-04-07T09:48:56.060Z,40.06
2019-04-07T09:49:57.346Z,40.58
2019-04-07T09:51:01.128Z,40.66
2019-04-07T09:51:57.476Z,40.36
2019-04-07T09:52:56.072Z,40.46
2019-04-07T09:53:56.658Z,39.65
2019-04-07T09:54:56.001Z,39.76
2019-04-07T09:55:57.967Z,39.56
2019-04-07T09:56:56.217Z,39.76
2019-04-07T09:57:56.055Z,39.64
2019-04-07T09:58:56.762Z,39.86
2019-04-07T09:59:56.475Z,39.84
2019-04-07T10:00:57.692Z,39.50
2019-04-07T10:01:59.420Z,38.88
2019-04-07T10:02:55.915Z,38.46
2019-04-07T10:03:55.911Z,37.34
2019-04-07T10:04:55.881Z,37.20
2019-04-07T10:05:55.869Z,36.40
2019-04-07T10:06:55.855Z,35.36
2019-04-07T10:07:55.848Z,34.84
2019-04-07T10:08:55.949Z,33.83
2019-04-07T10:10:07.675Z,33.59
2019-04-07T10:10:57.252Z,33.18
2019-04-07T10:11:56.622Z,32.46
2019-04-07T10:12:56.513Z,31.93
2019-04-07T10:13:56.537Z,31.52
2019-04-07T10:14:56.333Z,30.69
2019-04-07T10:15:56.363Z,30.48
2019-04-07T10:16:56.329Z,28.97
2019-04-07T10:17:56.479Z,29.17
2019-04-07T10:18:56.473Z,28.66
2019-04-07T10:19:55.735Z,28.34
2019-04-07T10:20:55.923Z,28.44
2019-04-07T10:21:56.112Z,28.53
2019-04-07T10:22:55.673Z,28.12
2019-04-07T10:23:56.318Z,27.91
2019-04-07T10:24:55.985Z,28.11
2019-04-07T10:25:56.131Z,26.80
2019-04-07T10:26:56.272Z,27.20
2019-04-07T10:27:55.932Z,27.19
2019-04-07T10:28:55.710Z,26.87
2019-04-07T10:29:55.687Z,26.07
2019-04-07T10:30:56.617Z,26.35
2019-04-07T10:31:56.569Z,26.34
2019-04-07T10:32:56.136Z,25.24
2019-04-07T10:33:56.253Z,25.62
2019-04-07T10:34:55.568Z,24.32
2019-04-07T10:35:55.577Z,25.79
2019-04-07T10:36:55.762Z,23.81
2019-04-07T10:37:55.515Z,23.80
2019-04-07T10:38:55.508Z,23.39
2019-04-07T10:39:57.919Z,23.69
2019-04-07T10:40:55.591Z,23.58
2019-04-07T10:41:55.489Z,22.67
2019-04-07T10:42:57.248Z,22.86
2019-04-07T10:43:55.818Z,23.05
2019-04-07T10:44:55.434Z,21.76
2019-04-07T10:45:56.005Z,22.14
2019-04-07T10:46:56.036Z,21.44
2019-04-07T10:47:55.419Z,20.46
2019-04-07T10:48:55.792Z,20.65
2019-04-07T10:50:01.932Z,19.56
2019-04-07T10:50:56.396Z,20.93
2019-04-07T10:51:55.370Z,20.54
2019-04-07T10:52:56.176Z,19.86
2019-04-07T10:53:56.140Z,20.25
2019-04-07T10:54:55.347Z,20.45
2019-04-07T10:55:55.361Z,20.95
2019-04-07T10:56:55.362Z,20.46
2019-04-07T10:57:55.319Z,20.75
2019-04-07T10:58:56.622Z,20.24
2019-04-07T10:59:55.707Z,19.15
2019-04-07T11:00:55.307Z,19.83
2019-04-07T11:01:55.261Z,18.93
2019-04-07T11:02:56.925Z,19.30
2019-04-07T11:03:56.399Z,19.10
2019-04-07T11:04:55.291Z,18.90
2019-04-07T11:05:55.259Z,19.18
2019-04-07T11:06:55.224Z,18.80
2019-04-07T11:07:55.875Z,18.52
2019-04-07T11:08:55.468Z,18.72
2019-04-07T11:09:55.191Z,18.32
2019-04-07T11:10:55.532Z,18.80
2019-04-07T11:11:55.189Z,18.11
2019-04-07T11:12:55.996Z,17.80
2019-04-07T11:13:55.471Z,17.79
2019-04-07T11:14:55.874Z,17.79
2019-04-07T11:15:55.264Z,17.19
2019-04-07T11:16:55.121Z,17.50
2019-04-07T11:17:55.883Z,17.31
2019-04-07T11:18:55.105Z,18.38
2019-04-07T11:19:55.098Z,17.88
2019-04-07T11:20:55.766Z,17.30
2019-04-07T11:21:55.593Z,18.27
2019-04-07T11:22:55.073Z,16.89
2019-04-07T11:23:55.061Z,17.46
2019-04-07T11:24:55.773Z,17.25
2019-04-07T11:25:55.065Z,16.17
2019-04-07T11:26:55.076Z,15.97
2019-04-07T11:27:55.078Z,16.36
2019-04-07T11:28:55.596Z,15.67
2019-04-07T11:29:55.033Z,15.57
2019-04-07T11:30:54.997Z,15.47
2019-04-07T11:31:55.008Z,14.69
2019-04-07T11:32:54.989Z,14.98
2019-04-07T11:33:55.510Z,15.17
2019-04-07T11:34:54.979Z,14.58
2019-04-07T11:35:54.951Z,15.26
2019-04-07T11:36:54.953Z,14.88
2019-04-07T11:37:54.941Z,15.38
2019-04-07T11:38:54.922Z,15.58
2019-04-07T11:39:54.919Z,15.97
2019-04-07T11:40:54.946Z,15.77
2019-04-07T11:41:55.713Z,14.78
2019-04-07T11:42:55.590Z,14.98
2019-04-07T11:43:54.876Z,14.96
2019-04-07T11:44:54.871Z,14.47
2019-04-07T11:46:00.065Z,13.31
2019-04-07T11:46:56.273Z,13.41
2019-04-07T11:47:54.847Z,13.21
2019-04-07T11:48:54.918Z,14.19
2019-04-07T11:49:55.213Z,14.09
2019-04-07T11:50:54.822Z,13.71
2019-04-07T11:51:55.547Z,14.29
2019-04-07T11:52:55.127Z,14.97
2019-04-07T11:53:54.812Z,13.99
2019-04-07T11:54:55.392Z,13.98
2019-04-07T11:55:54.804Z,12.73
2019-04-07T11:56:55.478Z,13.51
2019-04-07T11:58:07.396Z,13.81
2019-04-07T11:58:55.740Z,13.42
2019-04-07T11:59:55.603Z,13.13
2019-04-07T12:00:54.742Z,13.51
2019-04-07T12:01:55.308Z,12.93
2019-04-07T12:02:55.580Z,12.84
2019-04-07T12:03:55.735Z,12.45
2019-04-07T12:04:55.360Z,12.63
2019-04-07T12:05:55.149Z,12.83
2019-04-07T12:06:54.739Z,13.02
2019-04-07T12:07:58.137Z,13.60
2019-04-07T12:08:54.680Z,13.79
2019-04-07T12:09:55.242Z,13.21
2019-04-07T12:11:01.029Z,11.85
2019-04-07T12:11:55.662Z,11.95
2019-04-07T12:12:54.900Z,12.92
2019-04-07T12:13:54.610Z,11.96
2019-04-07T12:14:54.721Z,11.95
2019-04-07T12:15:56.024Z,12.34
2019-04-07T12:16:57.970Z,12.63
2019-04-07T12:17:54.582Z,11.95
2019-04-07T12:18:55.481Z,11.95
2019-04-07T12:19:56.790Z,12.05
2019-04-07T12:20:54.577Z,12.44
2019-04-07T12:21:54.718Z,11.94
2019-04-07T12:22:54.956Z,12.62
2019-04-07T12:23:55.365Z,12.24
2019-04-07T12:24:58.089Z,12.05
2019-04-07T12:25:55.778Z,10.88
2019-04-07T12:26:54.921Z,10.68
2019-04-07T12:27:54.870Z,11.07
2019-04-07T12:28:54.648Z,11.37
2019-04-07T12:29:54.478Z,10.50
2019-04-07T12:30:54.567Z,10.80
2019-04-07T12:31:54.620Z,11.48
2019-04-07T12:32:55.186Z,11.58
2019-04-07T12:33:54.897Z,11.77
2019-04-07T12:34:54.711Z,12.16
2019-04-07T12:35:56.071Z,12.17
2019-04-07T12:36:54.428Z,12.38
2019-04-07T12:37:57.164Z,11.99
2019-04-07T12:38:55.235Z,11.10
2019-04-07T12:39:54.411Z,10.81
2019-04-07T12:41:09.959Z,11.89
2019-04-07T12:41:57.228Z,11.69
2019-04-07T12:42:54.606Z,10.80
2019-04-07T12:43:55.109Z,10.71
2019-04-07T12:44:55.460Z,11.47
2019-04-07T12:45:54.818Z,10.50
2019-04-07T12:46:55.616Z,10.78
2019-04-07T12:47:54.349Z,10.48
2019-04-07T12:48:54.392Z,10.96
2019-04-07T12:49:55.117Z,10.77
2019-04-07T12:50:55.142Z,9.41
2019-04-07T12:51:55.967Z,9.40